Killeen, TX (76543)

2:34 AM CDT on August 28, 2014 (GMT -0500)
W. Birch St. | Change Station
CLOSE
Current Station
Personal Weather Station
Location: Nolanville, TX
Elevation: 715 ft
Nearby Weather Stations

Elev 715 ft 31.08 °N, 97.59 °W | Updated 7 seconds ago

Clear
Clear
76.6 °F
Feels Like 78 °F
N
1.6
Wind Variable Wind from SW
Gusts 1.6 mph

Today
High -- | Low -- °F
--% Chance of Precip.
Yesterday
High -- | Low -- °F
Precip. -- in
7:04 AM 7:58 PM
Waxing Crescent, 7% visible
Pressure 29.99 in
Visibility 10.0 miles
Clouds Clear
Heat Index 78 °F
Dew Point 67 °F
Humidity 71%
Rainfall 0.00 in
Snow Depth Not available.
UV 0 out of 12
Pollen 8.50 out of 12
Ozone Good
PM2.5 Good
Flu Activity Not available.
METAR KILE 280715Z AUTO 17004KT 10SM CLR 26/17 A2999 RMK AO1

More Conditions Fewer Conditions

Pressure 29.99 in
Visibility 10.0 miles
Clouds Clear
Heat Index 78 °F
Dew Point 67 °F
Humidity 71%
Rainfall 0.00 in
Snow Depth Not available.
UV 0 out of 12
Pollen 8.50 out of 12
Ozone Good
PM2.5 Good
Flu Activity Not available.
METAR KILE 280715Z AUTO 17004KT 10SM CLR 26/17 A2999 RMK AO1

More Conditions Fewer Conditions

10-Day Weather Forecast

Almanac

Astronomy

Aug. 28, 2014 Rise Set
Actual Time 7:04 AM CDT 7:58 PM CDT
Civil Twilight 6:39 AM CDT 8:23 PM CDT
Nautical Twilight 6:10 AM CDT 8:52 PM CDT
Astronomical Twilight 5:40 AM CDT 9:22 PM CDT
Moon 9:43 AM CDT 9:39 PM CDT
Length of Visible Light 13h 43m
Length of Day
12h 54m
Tomorrow will be 1m 47s shorter.
Waxing Crescent, 7% of the Moon is Illuminated
Today
Waxing Crescent
Sep 2
First Quarter
Sep 8
Full
Sep 15
Last Quarter
Sep 24
New

Today's Extremes

State Highs State Lows

Community

WunderPhotos

Upload Photos

1,747,912 photos uploaded!

Nearby

Air Quality

  Air Quality AQ Index Pollutant
Yesterday Moderate
OZONE
Yesterday Good
PM2.5
Current Good
PM2.5
Current Good
OZONE
Thursday Moderate
OZONE
Thursday Good
PM10
Friday Good
PM10
Friday Good
OZONE
Saturday Good
PM10
Saturday Good
OZONE

Snow Depth

Station Depth Elevation
No new snow has been reported.

Earthquake Activity

City Distance Mag. Time & Date
No recent earthquake activity has been reported nearby.
Minimum magnitude displayed is 2.5.

Coastal Water Temperatures

Place Temperature
No Stations Reporting

Nearby Weather Stations